RJNH(METAR)
04/24 09:00
METAR RJNH 240000Z 10010KT 9999 -RA FEW012 SCT015 BKN100 19/17 Q1018
RMK 1CU012 4CU015 6AC100 A3007=
戻る
トップページへ戻る
IMOC Co,.Ltd.